Time;durP1;ratioP1;P1;durP2;ratioP2;P2;SDS_P1;SDS_P2;PMS_P1;PMS_P2;Temp;Humidity;BMP_temperature;BMP_pressure;BME280_temperature;BME280_humidity;BME280_pressure;Samples;Min_cycle;Max_cycle;Signal;HPM_P1;HPM_P2
2023/10/27 00:20:33;;;;;;;54.53;38.63;;;;;;;;;;4987889;28;20245;-87
2023/10/27 00:22:59;;;;;;;55.17;38.90;;;;;;;;;;4959710;28;20232;-89
2023/10/27 00:25:25;;;;;;;58.67;39.73;;;;;;;;;;4991547;28;20190;-89
2023/10/27 00:27:51;;;;;;;55.33;39.13;;;;;;;;;;4989161;28;20205;-89
2023/10/27 00:30:17;;;;;;;53.57;39.37;;;;;;;;;;4998120;28;20257;-89
2023/10/27 00:32:44;;;;;;;53.97;39.27;;;;;;;;;;4990307;28;20240;-89
2023/10/27 00:35:10;;;;;;;53.33;38.13;;;;;;;;;;4972561;28;20183;-89
2023/10/27 00:37:38;;;;;;;54.60;38.50;;;;;;;;;;4950880;28;20338;-89
2023/10/27 00:40:04;;;;;;;53.03;37.67;;;;;;;;;;4976369;28;20183;-89
2023/10/27 00:42:30;;;;;;;55.87;38.97;;;;;;;;;;4968268;28;20193;-88
2023/10/27 00:44:57;;;;;;;55.37;39.13;;;;;;;;;;4995618;28;20181;-89
2023/10/27 00:47:26;;;;;;;55.87;38.53;;;;;;;;;;4994854;28;20265;-90
2023/10/27 00:49:52;;;;;;;56.20;39.03;;;;;;;;;;4996065;28;20178;-90
2023/10/27 00:52:20;;;;;;;57.80;40.57;;;;;;;;;;4996953;28;20182;-91
2023/10/27 00:54:47;;;;;;;55.07;39.60;;;;;;;;;;4996958;28;20174;-90
2023/10/27 00:57:14;;;;;;;54.80;39.27;;;;;;;;;;4995468;28;20201;-92
2023/10/27 00:59:40;;;;;;;61.63;40.63;;;;;;;;;;4992232;28;20186;-87
2023/10/27 01:02:07;;;;;;;64.47;41.10;;;;;;;;;;4974344;28;20182;-89
2023/10/27 01:04:33;;;;;;;56.83;40.83;;;;;;;;;;4963442;28;20197;-91
2023/10/27 01:06:59;;;;;;;63.57;41.27;;;;;;;;;;4994857;28;20182;-90
2023/10/27 01:09:25;;;;;;;66.00;41.70;;;;;;;;;;4995393;28;20239;-91
2023/10/27 01:11:51;;;;;;;59.43;39.73;;;;;;;;;;4995009;28;20184;-90
2023/10/27 01:14:18;;;;;;;67.57;41.73;;;;;;;;;;4963248;28;20234;-91
2023/10/27 01:16:44;;;;;;;67.70;42.33;;;;;;;;;;4962778;28;20184;-86
2023/10/27 01:19:10;;;;;;;66.77;41.83;;;;;;;;;;4975474;28;20234;-87
2023/10/27 01:21:36;;;;;;;69.73;42.70;;;;;;;;;;4991574;28;20179;-86
2023/10/27 01:24:04;;;;;;;72.10;43.50;;;;;;;;;;4964447;28;20195;-87
2023/10/27 01:26:30;;;;;;;66.77;42.07;;;;;;;;;;4953103;29;20184;-86
2023/10/27 01:28:56;;;;;;;71.43;43.80;;;;;;;;;;4953188;29;20184;-86
2023/10/27 01:31:23;;;;;;;68.77;42.43;;;;;;;;;;4955773;28;20195;-86
2023/10/27 01:33:49;;;;;;;72.90;44.23;;;;;;;;;;4955255;29;20303;-86
2023/10/27 01:36:15;;;;;;;71.10;43.87;;;;;;;;;;4956163;28;20190;-91
2023/10/27 01:38:41;;;;;;;75.87;43.77;;;;;;;;;;4942774;29;20196;-91
2023/10/27 01:41:07;;;;;;;84.70;46.47;;;;;;;;;;4968802;28;20193;-91
2023/10/27 01:43:33;;;;;;;79.47;44.77;;;;;;;;;;4962533;28;20190;-90
2023/10/27 01:45:59;;;;;;;83.50;44.77;;;;;;;;;;4972184;28;20213;-90
2023/10/27 01:48:25;;;;;;;78.20;44.27;;;;;;;;;;4961796;28;20196;-90
2023/10/27 01:50:51;;;;;;;84.73;43.77;;;;;;;;;;4962931;28;20195;-90
2023/10/27 01:53:17;;;;;;;78.30;44.67;;;;;;;;;;4961318;28;20282;-90
2023/10/27 01:55:43;;;;;;;84.50;45.53;;;;;;;;;;4948113;28;20198;-89
2023/10/27 01:58:09;;;;;;;76.10;43.57;;;;;;;;;;4958281;28;20184;-89
2023/10/27 02:00:36;;;;;;;82.10;45.13;;;;;;;;;;4971815;28;20183;-89
2023/10/27 02:03:02;;;;;;;81.03;45.90;;;;;;;;;;4981882;28;20214;-90
2023/10/27 02:05:28;;;;;;;85.70;45.90;;;;;;;;;;4985908;28;20183;-90
2023/10/27 02:07:54;;;;;;;106.77;48.37;;;;;;;;;;4955478;29;20285;-90
2023/10/27 02:10:20;;;;;;;86.57;46.53;;;;;;;;;;4939715;28;20194;-89
2023/10/27 02:12:46;;;;;;;89.17;46.47;;;;;;;;;;4936030;28;20220;-89
2023/10/27 02:15:13;;;;;;;100.07;47.37;;;;;;;;;;4939389;29;20223;-89
2023/10/27 02:17:39;;;;;;;86.03;46.13;;;;;;;;;;4949638;28;20191;-89
2023/10/27 02:20:06;;;;;;;84.23;45.80;;;;;;;;;;4973554;28;20322;-89
2023/10/27 02:22:32;;;;;;;101.33;46.73;;;;;;;;;;4956183;29;20182;-89
2023/10/27 02:24:58;;;;;;;87.57;46.20;;;;;;;;;;4971823;28;20191;-89
2023/10/27 02:27:24;;;;;;;88.57;46.40;;;;;;;;;;4952294;28;20257;-93
2023/10/27 02:29:50;;;;;;;89.00;45.60;;;;;;;;;;4975999;28;20206;-93
2023/10/27 02:32:16;;;;;;;92.73;47.17;;;;;;;;;;4939896;28;20187;-92
2023/10/27 02:34:42;;;;;;;101.43;46.87;;;;;;;;;;4955449;28;20261;-93
2023/10/27 02:37:08;;;;;;;109.23;47.87;;;;;;;;;;4952926;28;20180;-93
2023/10/27 02:39:34;;;;;;;81.20;45.97;;;;;;;;;;4976337;28;20234;-93
2023/10/27 02:42:00;;;;;;;88.47;44.67;;;;;;;;;;4935840;29;20251;-93
2023/10/27 02:44:26;;;;;;;81.33;44.17;;;;;;;;;;4958663;28;20199;-89
2023/10/27 02:46:53;;;;;;;93.87;44.83;;;;;;;;;;4950296;28;20184;-88
2023/10/27 02:49:19;;;;;;;88.93;44.87;;;;;;;;;;4941993;28;20199;-87
2023/10/27 02:51:45;;;;;;;88.70;44.50;;;;;;;;;;4966682;28;20199;-88
2023/10/27 02:54:11;;;;;;;79.93;43.93;;;;;;;;;;4955609;28;20207;-88
2023/10/27 02:56:37;;;;;;;90.37;43.80;;;;;;;;;;4986806;28;20194;-88
2023/10/27 02:59:05;;;;;;;86.73;44.70;;;;;;;;;;4952605;28;20196;-88
2023/10/27 03:01:31;;;;;;;113.43;47.00;;;;;;;;;;4943736;29;20202;-86
2023/10/27 03:03:57;;;;;;;88.40;45.60;;;;;;;;;;4947271;28;20195;-86
2023/10/27 03:06:23;;;;;;;82.67;43.70;;;;;;;;;;4962916;28;20199;-87
2023/10/27 03:08:50;;;;;;;116.77;47.80;;;;;;;;;;4935900;28;20187;-87
2023/10/27 03:11:16;;;;;;;100.47;45.63;;;;;;;;;;4974213;28;20191;-87
2023/10/27 03:13:42;;;;;;;85.57;44.67;;;;;;;;;;4970983;28;20292;-87
2023/10/27 03:16:08;;;;;;;88.07;43.03;;;;;;;;;;4940528;29;20252;-86
2023/10/27 03:18:34;;;;;;;124.37;46.37;;;;;;;;;;4977669;28;20226;-89
2023/10/27 03:21:03;;;;;;;86.43;41.53;;;;;;;;;;4961526;28;20197;-89
2023/10/27 03:23:30;;;;;;;90.40;43.07;;;;;;;;;;4993756;28;20222;-90
2023/10/27 03:25:58;;;;;;;88.10;42.07;;;;;;;;;;4977457;28;20194;-90
2023/10/27 03:28:24;;;;;;;81.83;41.10;;;;;;;;;;4960454;28;20274;-90
2023/10/27 03:30:50;;;;;;;80.60;41.17;;;;;;;;;;4986031;28;20209;-90
2023/10/27 03:33:17;;;;;;;68.97;38.77;;;;;;;;;;4981095;28;20215;-90
2023/10/27 03:35:43;;;;;;;64.17;36.87;;;;;;;;;;4976006;28;20183;-90
2023/10/27 03:38:10;;;;;;;81.10;38.93;;;;;;;;;;4961568;28;20183;-89
2023/10/27 03:40:37;;;;;;;98.00;37.60;;;;;;;;;;4989707;28;20183;-88
2023/10/27 03:43:03;;;;;;;87.50;37.77;;;;;;;;;;4977257;28;20183;-89
2023/10/27 03:45:29;;;;;;;69.77;37.00;;;;;;;;;;4976019;28;20200;-89
2023/10/27 03:47:56;;;;;;;76.07;36.73;;;;;;;;;;4986210;28;20863;-89
2023/10/27 03:50:22;;;;;;;76.53;37.47;;;;;;;;;;4976968;28;20191;-93
2023/10/27 03:52:48;;;;;;;71.77;36.70;;;;;;;;;;4993558;28;20206;-93
2023/10/27 03:55:14;;;;;;;70.60;36.90;;;;;;;;;;4993667;28;20277;-92
2023/10/27 03:57:41;;;;;;;72.60;37.53;;;;;;;;;;4993277;28;20202;-93
2023/10/27 04:00:08;;;;;;;64.07;36.60;;;;;;;;;;4993707;28;20205;-93
2023/10/27 04:02:35;;;;;;;64.57;35.40;;;;;;;;;;4977282;28;20187;-93
2023/10/27 04:05:01;;;;;;;67.83;35.83;;;;;;;;;;4974277;28;20183;-94
2023/10/27 04:07:27;;;;;;;61.13;35.50;;;;;;;;;;4974253;28;20176;-94
2023/10/27 04:09:53;;;;;;;74.23;36.20;;;;;;;;;;4973962;28;20183;-94
2023/10/27 04:12:20;;;;;;;72.57;37.10;;;;;;;;;;4971555;28;20187;-93
2023/10/27 04:14:46;;;;;;;64.80;35.50;;;;;;;;;;4960801;28;20216;-93
2023/10/27 04:17:12;;;;;;;66.90;35.90;;;;;;;;;;4989207;28;20190;-87
2023/10/27 04:19:38;;;;;;;75.87;36.73;;;;;;;;;;5000878;28;20230;-87
2023/10/27 04:22:04;;;;;;;61.20;34.30;;;;;;;;;;4969644;28;20262;-88
2023/10/27 04:24:30;;;;;;;60.13;33.97;;;;;;;;;;4964994;28;20194;-94
2023/10/27 04:26:56;;;;;;;60.90;34.03;;;;;;;;;;4976741;28;20182;-93
2023/10/27 04:29:22;;;;;;;56.10;32.50;;;;;;;;;;4973707;28;20194;-93
2023/10/27 04:31:48;;;;;;;60.50;33.27;;;;;;;;;;4992585;28;20191;-93
2023/10/27 04:34:14;;;;;;;54.37;31.70;;;;;;;;;;4941687;29;20219;-93
2023/10/27 04:36:40;;;;;;;56.10;32.20;;;;;;;;;;5001676;28;20174;-93
2023/10/27 04:39:06;;;;;;;53.17;31.77;;;;;;;;;;4993125;28;20206;-92
2023/10/27 04:41:33;;;;;;;54.77;30.97;;;;;;;;;;4975767;28;20281;-89
2023/10/27 04:43:59;;;;;;;52.00;31.57;;;;;;;;;;4961026;28;20198;-84
2023/10/27 04:46:26;;;;;;;51.00;30.03;;;;;;;;;;4992399;28;20183;-84
2023/10/27 04:48:52;;;;;;;48.97;30.40;;;;;;;;;;4960445;28;20187;-92
2023/10/27 04:51:19;;;;;;;52.77;29.50;;;;;;;;;;4976488;28;20269;-92
2023/10/27 04:53:45;;;;;;;51.83;29.30;;;;;;;;;;4992138;28;20202;-92
2023/10/27 04:56:11;;;;;;;50.87;29.80;;;;;;;;;;4960672;28;20279;-86
2023/10/27 04:58:39;;;;;;;44.17;28.37;;;;;;;;;;4960067;28;20194;-87
2023/10/27 05:01:05;;;;;;;51.73;29.37;;;;;;;;;;4976364;28;20187;-87
2023/10/27 05:03:31;;;;;;;44.57;27.67;;;;;;;;;;4959861;28;20218;-88
2023/10/27 05:06:06;;;;;;;42.97;28.33;;;;;;;;;;4959876;28;20182;-87
2023/10/27 05:08:32;;;;;;;52.63;29.63;;;;;;;;;;4975964;28;20236;-87
2023/10/27 05:10:58;;;;;;;49.67;29.03;;;;;;;;;;4992246;28;20182;-87
2023/10/27 05:13:24;;;;;;;47.30;27.90;;;;;;;;;;4988910;28;20207;-85
2023/10/27 05:15:56;;;;;;;43.73;27.80;;;;;;;;;;4997072;28;20183;-84
2023/10/27 05:18:22;;;;;;;68.97;29.63;;;;;;;;;;4990283;28;20180;-86
2023/10/27 05:20:49;;;;;;;46.60;27.30;;;;;;;;;;4989672;28;20230;-84
2023/10/27 05:23:15;;;;;;;45.20;27.10;;;;;;;;;;4959762;28;20282;-85
2023/10/27 05:25:41;;;;;;;36.93;26.43;;;;;;;;;;4991761;28;20167;-85
2023/10/27 05:28:13;;;;;;;43.10;26.67;;;;;;;;;;4991890;28;20170;-85
2023/10/27 05:30:43;;;;;;;47.73;27.10;;;;;;;;;;4989659;28;20205;-88
2023/10/27 05:33:09;;;;;;;41.97;25.90;;;;;;;;;;4993614;28;20186;-89
2023/10/27 05:35:35;;;;;;;47.60;26.50;;;;;;;;;;4991446;28;20174;-88
2023/10/27 05:38:01;;;;;;;39.00;25.70;;;;;;;;;;4959005;28;20191;-88
2023/10/27 05:40:31;;;;;;;38.17;25.87;;;;;;;;;;4975421;28;20270;-87
2023/10/27 05:42:58;;;;;;;38.67;25.83;;;;;;;;;;4959122;28;20337;-88
2023/10/27 05:45:24;;;;;;;47.63;26.60;;;;;;;;;;4991963;28;20222;-89
2023/10/27 05:47:50;;;;;;;40.80;26.37;;;;;;;;;;4991184;28;20306;-89
2023/10/27 05:50:18;;;;;;;39.37;26.50;;;;;;;;;;4987727;28;20339;-89
2023/10/27 05:52:44;;;;;;;36.20;24.27;;;;;;;;;;4982667;28;20182;-89
2023/10/27 05:55:10;;;;;;;43.20;26.10;;;;;;;;;;4951701;28;20197;-89
2023/10/27 05:57:36;;;;;;;39.90;24.87;;;;;;;;;;4981935;28;20200;-88
2023/10/27 06:00:04;;;;;;;44.63;26.33;;;;;;;;;;4958889;28;20229;-89
2023/10/27 06:02:30;;;;;;;49.67;26.80;;;;;;;;;;4955447;28;20215;-89
2023/10/27 06:04:56;;;;;;;48.40;26.20;;;;;;;;;;4996340;28;20211;-89
2023/10/27 06:07:22;;;;;;;37.27;25.70;;;;;;;;;;4994495;28;20198;-89
2023/10/27 06:09:49;;;;;;;35.97;25.23;;;;;;;;;;4958824;28;20191;-89
2023/10/27 06:12:15;;;;;;;38.30;24.77;;;;;;;;;;4958885;28;20189;-88
2023/10/27 06:14:44;;;;;;;42.97;24.87;;;;;;;;;;4990234;28;20210;-89
2023/10/27 06:17:13;;;;;;;39.90;25.27;;;;;;;;;;4989616;28;20187;-88
2023/10/27 06:19:39;;;;;;;39.00;25.27;;;;;;;;;;4990590;28;20237;-88
2023/10/27 06:22:06;;;;;;;37.13;25.67;;;;;;;;;;4990932;28;20514;-89
2023/10/27 06:24:32;;;;;;;38.77;23.57;;;;;;;;;;4990517;28;20187;-89
2023/10/27 06:26:58;;;;;;;31.93;22.43;;;;;;;;;;4982923;28;20186;-89
2023/10/27 06:29:24;;;;;;;33.50;21.43;;;;;;;;;;4987942;28;20186;-89
2023/10/27 06:31:50;;;;;;;33.63;22.73;;;;;;;;;;4977519;28;20197;-88
2023/10/27 06:34:16;;;;;;;29.33;21.67;;;;;;;;;;4994884;28;20206;-89
2023/10/27 06:36:43;;;;;;;32.97;22.43;;;;;;;;;;4993417;28;20186;-87
2023/10/27 06:39:09;;;;;;;33.87;21.80;;;;;;;;;;4990795;28;20206;-87
2023/10/27 06:41:35;;;;;;;32.45;22.13;;;;;;;;;;4959744;28;20422;-87
2023/10/27 06:44:01;;;;;;;27.93;20.57;;;;;;;;;;4959540;28;20209;-87
2023/10/27 06:46:27;;;;;;;35.37;20.73;;;;;;;;;;4979719;28;20190;-87
2023/10/27 06:48:53;;;;;;;30.67;20.23;;;;;;;;;;4977506;28;20198;-86
2023/10/27 06:51:21;;;;;;;25.87;19.00;;;;;;;;;;4989794;28;20265;-86
2023/10/27 06:53:48;;;;;;;24.17;18.10;;;;;;;;;;4985152;28;20209;-90
2023/10/27 06:56:14;;;;;;;23.83;17.77;;;;;;;;;;5007423;28;20177;-89
2023/10/27 06:58:40;;;;;;;23.57;18.60;;;;;;;;;;5012741;28;20174;-91
2023/10/27 07:01:07;;;;;;;22.97;17.60;;;;;;;;;;5003828;28;20244;-91
2023/10/27 07:03:34;;;;;;;22.77;17.40;;;;;;;;;;4999617;28;20191;-89
2023/10/27 07:06:00;;;;;;;25.17;18.30;;;;;;;;;;4967191;28;20194;-90
2023/10/27 07:08:26;;;;;;;31.03;19.50;;;;;;;;;;4974723;28;20190;-90
2023/10/27 07:10:57;;;;;;;24.43;18.47;;;;;;;;;;4980520;28;20190;-88
2023/10/27 07:13:24;;;;;;;29.90;19.00;;;;;;;;;;5014094;28;20213;-87
2023/10/27 07:15:50;;;;;;;27.87;19.23;;;;;;;;;;5012759;28;20174;-87
2023/10/27 07:18:16;;;;;;;31.03;19.53;;;;;;;;;;4968681;28;20273;-87
2023/10/27 07:20:42;;;;;;;24.13;18.23;;;;;;;;;;4996514;28;20237;-87
2023/10/27 07:23:08;;;;;;;25.27;18.87;;;;;;;;;;5026362;23;20239;-87
2023/10/27 07:25:34;;;;;;;22.13;17.73;;;;;;;;;;5012016;28;20183;-87
2023/10/27 07:28:01;;;;;;;25.13;18.23;;;;;;;;;;5046991;28;20236;-88
2023/10/27 07:30:43;;;;;;;22.20;18.30;;;;;;;;;;5048264;28;20192;-87
2023/10/27 07:33:10;;;;;;;24.70;17.57;;;;;;;;;;5048118;28;20211;-87
2023/10/27 07:35:37;;;;;;;25.07;18.57;;;;;;;;;;5006424;28;20277;-87
2023/10/27 07:38:03;;;;;;;27.67;19.70;;;;;;;;;;5018849;28;20192;-88
2023/10/27 07:40:30;;;;;;;21.47;17.87;;;;;;;;;;5000391;28;20181;-88
2023/10/27 07:42:58;;;;;;;21.97;18.00;;;;;;;;;;5016554;28;20240;-91
2023/10/27 07:45:25;;;;;;;22.30;18.70;;;;;;;;;;5017101;28;20181;-91
2023/10/27 07:47:51;;;;;;;23.23;18.47;;;;;;;;;;5017537;28;20224;-92
2023/10/27 07:50:17;;;;;;;24.67;18.90;;;;;;;;;;5027829;28;20248;-91
2023/10/27 07:52:44;;;;;;;27.10;20.53;;;;;;;;;;5032459;28;20196;-89
2023/10/27 07:55:10;;;;;;;26.33;19.43;;;;;;;;;;5028533;28;20190;-89
2023/10/27 07:57:36;;;;;;;25.60;19.43;;;;;;;;;;5019895;28;20185;-89
2023/10/27 08:00:03;;;;;;;21.67;18.47;;;;;;;;;;5002972;28;20185;-87
2023/10/27 08:02:32;;;;;;;24.80;19.43;;;;;;;;;;5022747;28;20243;-85
2023/10/27 08:04:58;;;;;;;24.50;18.53;;;;;;;;;;5021163;28;20186;-91
2023/10/27 08:07:25;;;;;;;23.57;19.30;;;;;;;;;;5032253;28;20197;-90
2023/10/27 08:09:51;;;;;;;25.50;19.83;;;;;;;;;;5024251;28;20275;-90
2023/10/27 08:12:17;;;;;;;23.17;18.60;;;;;;;;;;5027543;28;20194;-91
2023/10/27 08:14:44;;;;;;;23.97;19.67;;;;;;;;;;5031990;28;20208;-91
2023/10/27 08:17:10;;;;;;;23.07;19.27;;;;;;;;;;5020437;28;20185;-90
2023/10/27 08:19:39;;;;;;;23.80;18.77;;;;;;;;;;5015521;28;20238;-91
2023/10/27 08:22:05;;;;;;;24.03;19.20;;;;;;;;;;5016337;28;20233;-90
2023/10/27 08:24:31;;;;;;;24.67;19.37;;;;;;;;;;5023131;28;20193;-89
2023/10/27 08:26:57;;;;;;;23.00;17.90;;;;;;;;;;5010502;28;20228;-90
2023/10/27 08:29:24;;;;;;;25.23;19.67;;;;;;;;;;5031725;28;20185;-90
2023/10/27 08:31:57;;;;;;;21.07;18.33;;;;;;;;;;4999651;28;20213;-91
2023/10/27 08:34:25;;;;;;;21.80;18.80;;;;;;;;;;5020599;28;20279;-87
2023/10/27 08:36:57;;;;;;;19.97;17.87;;;;;;;;;;5039651;28;20196;-87
2023/10/27 08:39:24;;;;;;;21.80;18.50;;;;;;;;;;5020994;28;20180;-87
2023/10/27 08:41:52;;;;;;;22.13;17.87;;;;;;;;;;5015235;28;20200;-89
2023/10/27 08:44:19;;;;;;;19.97;17.67;;;;;;;;;;5039171;28;20195;-88
2023/10/27 08:46:47;;;;;;;19.50;17.40;;;;;;;;;;5023045;28;20251;-87
2023/10/27 08:49:16;;;;;;;20.47;18.27;;;;;;;;;;5002406;28;20189;-87
2023/10/27 08:51:42;;;;;;;25.43;18.03;;;;;;;;;;5039214;28;20177;-86
2023/10/27 08:54:10;;;;;;;22.13;18.60;;;;;;;;;;5025670;28;20208;-87
2023/10/27 08:56:36;;;;;;;20.93;18.33;;;;;;;;;;5023593;28;20185;-87
2023/10/27 08:59:03;;;;;;;20.87;17.40;;;;;;;;;;5022756;28;20189;-87
2023/10/27 09:01:29;;;;;;;22.20;18.00;;;;;;;;;;5020440;28;20231;-87
2023/10/27 09:04:09;;;;;;;20.17;17.00;;;;;;;;;;5020866;28;20276;-87
2023/10/27 09:06:35;;;;;;;23.70;19.10;;;;;;;;;;5042701;28;20185;-85
2023/10/27 09:09:01;;;;;;;21.53;18.27;;;;;;;;;;5015536;28;20186;-85
2023/10/27 09:11:27;;;;;;;21.80;17.60;;;;;;;;;;5041198;28;20189;-85
2023/10/27 09:13:53;;;;;;;26.73;18.83;;;;;;;;;;5022380;28;20217;-85
2023/10/27 09:16:26;;;;;;;23.83;19.27;;;;;;;;;;5040351;28;20209;-85
2023/10/27 09:18:52;;;;;;;21.47;18.37;;;;;;;;;;5017446;28;20188;-85
2023/10/27 09:21:33;;;;;;;23.50;18.00;;;;;;;;;;5040231;28;20335;-85
2023/10/27 09:23:59;;;;;;;23.90;18.97;;;;;;;;;;5008486;28;20224;-91
2023/10/27 09:26:28;;;;;;;25.63;18.40;;;;;;;;;;5020655;28;20176;-90
2023/10/27 09:29:01;;;;;;;26.77;19.63;;;;;;;;;;5018927;28;20188;-92
2023/10/27 09:31:34;;;;;;;22.53;18.00;;;;;;;;;;5039586;28;20186;-91
2023/10/27 09:34:19;;;;;;;21.37;18.60;;;;;;;;;;5037162;28;20255;-90
2023/10/27 09:36:46;;;;;;;20.80;18.43;;;;;;;;;;5040583;28;20275;-92
2023/10/27 09:39:20;;;;;;;22.13;18.37;;;;;;;;;;5018387;28;20248;-91
2023/10/27 09:41:55;;;;;;;25.33;18.80;;;;;;;;;;5045006;28;20238;-87
2023/10/27 09:44:25;;;;;;;22.97;18.37;;;;;;;;;;5039046;28;20183;-87
2023/10/27 09:46:52;;;;;;;24.40;19.23;;;;;;;;;;5022022;28;20186;-87
2023/10/27 09:49:28;;;;;;;22.87;19.37;;;;;;;;;;5008156;28;20185;-87
2023/10/27 09:52:01;;;;;;;23.20;19.20;;;;;;;;;;5021229;28;20192;-87
2023/10/27 09:54:32;;;;;;;23.00;19.30;;;;;;;;;;5023570;28;20260;-87
2023/10/27 09:57:01;;;;;;;21.80;19.23;;;;;;;;;;5023271;28;20181;-84
2023/10/27 09:59:31;;;;;;;23.33;19.23;;;;;;;;;;5005979;28;20207;-85
2023/10/27 10:02:05;;;;;;;22.17;19.43;;;;;;;;;;5005330;28;20190;-85
2023/10/27 10:04:50;;;;;;;25.83;19.13;;;;;;;;;;5024841;28;20191;-85
2023/10/27 10:07:35;;;;;;;22.63;20.00;;;;;;;;;;5019896;28;20198;-85
2023/10/27 10:10:20;;;;;;;22.83;19.37;;;;;;;;;;5017907;28;20199;-85
2023/10/27 10:13:05;;;;;;;20.57;18.10;;;;;;;;;;5021517;28;20199;-85
2023/10/27 10:15:33;;;;;;;21.23;18.83;;;;;;;;;;5021933;28;20196;-85
2023/10/27 10:17:59;;;;;;;21.53;19.20;;;;;;;;;;5024633;28;20310;-85
2023/10/27 10:20:56;;;;;;;20.43;18.33;;;;;;;;;;5017659;28;20196;-85
2023/10/27 10:23:24;;;;;;;20.40;18.30;;;;;;;;;;5024083;28;20285;-85
2023/10/27 10:25:51;;;;;;;19.47;17.40;;;;;;;;;;5019663;28;20248;-84
2023/10/27 10:28:17;;;;;;;19.63;17.23;;;;;;;;;;5039926;28;20189;-84
2023/10/27 10:30:44;;;;;;;22.10;17.57;;;;;;;;;;5038946;28;20188;-85
2023/10/27 10:33:16;;;;;;;20.57;18.37;;;;;;;;;;5021031;28;20224;-84
2023/10/27 10:35:42;;;;;;;20.30;18.30;;;;;;;;;;5023129;28;20191;-84
2023/10/27 10:38:24;;;;;;;20.23;18.13;;;;;;;;;;5022414;28;20190;-84
2023/10/27 10:40:51;;;;;;;19.93;17.80;;;;;;;;;;5017986;28;20284;-84
2023/10/27 10:43:20;;;;;;;18.67;16.77;;;;;;;;;;5024550;28;20192;-85
2023/10/27 10:45:56;;;;;;;20.07;17.60;;;;;;;;;;5017920;28;20194;-85
2023/10/27 10:48:25;;;;;;;18.20;16.27;;;;;;;;;;5024565;28;20224;-87
2023/10/27 10:50:53;;;;;;;17.80;16.00;;;;;;;;;;5019096;28;20196;-87
2023/10/27 10:53:21;;;;;;;17.87;16.10;;;;;;;;;;5018103;28;20209;-87
2023/10/27 10:55:50;;;;;;;21.00;16.43;;;;;;;;;;5025048;28;20181;-87
2023/10/27 10:58:26;;;;;;;19.20;17.20;;;;;;;;;;5028110;28;20189;-87
2023/10/27 11:00:53;;;;;;;18.23;16.40;;;;;;;;;;5022644;28;20192;-87
2023/10/27 11:03:21;;;;;;;18.57;16.63;;;;;;;;;;5002992;28;20206;-90
2023/10/27 11:05:47;;;;;;;19.13;17.23;;;;;;;;;;5025430;28;20202;-91
2023/10/27 11:08:22;;;;;;;18.93;17.10;;;;;;;;;;5038689;28;20192;-89
2023/10/27 11:10:48;;;;;;;17.77;16.07;;;;;;;;;;5015279;28;20209;-90
2023/10/27 11:13:14;;;;;;;19.53;16.60;;;;;;;;;;5035533;28;20208;-90
2023/10/27 11:15:44;;;;;;;17.60;15.80;;;;;;;;;;5033963;28;20181;-91
2023/10/27 11:18:14;;;;;;;17.67;15.90;;;;;;;;;;5020471;28;20187;-90
2023/10/27 11:20:41;;;;;;;17.47;15.80;;;;;;;;;;5010906;28;20189;-86
2023/10/27 11:23:08;;;;;;;17.50;15.77;;;;;;;;;;5021418;28;20225;-85
2023/10/27 11:25:34;;;;;;;18.13;16.13;;;;;;;;;;5042262;28;20194;-86
2023/10/27 11:28:18;;;;;;;18.10;16.27;;;;;;;;;;5018989;28;20177;-84
2023/10/27 11:30:57;;;;;;;18.53;16.20;;;;;;;;;;5038714;28;20185;-85
2023/10/27 11:33:23;;;;;;;17.77;16.07;;;;;;;;;;5015989;28;20216;-86
2023/10/27 11:35:49;;;;;;;17.33;15.63;;;;;;;;;;5016679;28;20177;-87
2023/10/27 11:38:15;;;;;;;16.33;14.67;;;;;;;;;;5034671;28;20192;-91
2023/10/27 11:40:41;;;;;;;16.87;15.20;;;;;;;;;;5027943;28;20235;-90
2023/10/27 11:43:07;;;;;;;17.00;15.27;;;;;;;;;;5020623;28;20186;-90
2023/10/27 11:45:34;;;;;;;15.83;14.43;;;;;;;;;;5007541;28;20266;-91
2023/10/27 11:48:00;;;;;;;16.40;14.60;;;;;;;;;;5025557;28;20192;-91
2023/10/27 11:50:26;;;;;;;16.17;14.47;;;;;;;;;;5009284;28;20196;-91
2023/10/27 11:52:55;;;;;;;15.83;14.33;;;;;;;;;;5042543;28;20188;-91
2023/10/27 11:55:21;;;;;;;15.63;14.03;;;;;;;;;;5029808;28;20184;-91
2023/10/27 11:57:47;;;;;;;15.50;14.10;;;;;;;;;;5017632;28;20268;-91
2023/10/27 12:00:13;;;;;;;15.37;13.97;;;;;;;;;;5045635;28;20177;-91
2023/10/27 12:02:39;;;;;;;14.97;13.60;;;;;;;;;;5016012;28;20185;-92
2023/10/27 12:05:05;;;;;;;15.10;13.70;;;;;;;;;;5013982;28;20185;-90
2023/10/27 12:07:31;;;;;;;15.47;14.07;;;;;;;;;;5000973;28;20197;-90
2023/10/27 12:09:57;;;;;;;16.13;14.70;;;;;;;;;;5042264;28;20204;-88
2023/10/27 12:12:26;;;;;;;16.00;14.50;;;;;;;;;;5036335;28;20227;-88
2023/10/27 12:14:52;;;;;;;15.60;14.20;;;;;;;;;;5027441;28;20211;-89
2023/10/27 12:17:18;;;;;;;16.83;15.23;;;;;;;;;;5025954;28;20221;-87
2023/10/27 12:19:58;;;;;;;15.93;14.43;;;;;;;;;;5024946;28;20185;-89
2023/10/27 12:22:24;;;;;;;15.60;14.20;;;;;;;;;;5003562;28;20362;-89
2023/10/27 12:24:50;;;;;;;15.40;14.00;;;;;;;;;;5024915;28;20184;-88
2023/10/27 12:27:16;;;;;;;14.73;13.40;;;;;;;;;;5004005;28;20223;-85
2023/10/27 12:29:42;;;;;;;13.37;12.07;;;;;;;;;;5045589;28;20192;-86
2023/10/27 12:32:09;;;;;;;12.43;11.30;;;;;;;;;;5024757;28;20197;-85
2023/10/27 12:34:35;;;;;;;11.90;10.77;;;;;;;;;;5024622;28;20220;-85
2023/10/27 12:37:02;;;;;;;11.20;10.13;;;;;;;;;;5002306;28;20192;-85
2023/10/27 12:39:28;;;;;;;9.90;9.00;;;;;;;;;;5024466;28;20216;-85
2023/10/27 12:41:54;;;;;;;9.90;8.73;;;;;;;;;;5015865;28;20220;-86
2023/10/27 12:44:22;;;;;;;10.37;9.47;;;;;;;;;;5023436;28;20267;-87
2023/10/27 12:46:48;;;;;;;9.97;8.97;;;;;;;;;;5015981;28;20193;-86
2023/10/27 12:49:14;;;;;;;8.30;7.60;;;;;;;;;;5026248;28;20184;-85
2023/10/27 12:51:40;;;;;;;6.53;5.93;;;;;;;;;;5013246;28;20193;-85
2023/10/27 12:54:08;;;;;;;6.20;5.70;;;;;;;;;;5025582;28;20212;-84
2023/10/27 12:56:35;;;;;;;7.33;6.13;;;;;;;;;;5021203;28;20182;-85
2023/10/27 12:59:01;;;;;;;5.80;5.30;;;;;;;;;;5025679;28;20290;-85
2023/10/27 13:01:27;;;;;;;5.17;4.67;;;;;;;;;;5014837;28;20208;-88
2023/10/27 13:03:53;;;;;;;4.67;3.27;;;;;;;;;;5002526;28;20198;-87
2023/10/27 13:06:19;;;;;;;4.53;3.60;;;;;;;;;;5005985;28;20197;-87
2023/10/27 13:08:45;;;;;;;3.10;2.90;;;;;;;;;;5028898;28;20192;-86
2023/10/27 13:11:12;;;;;;;2.87;2.60;;;;;;;;;;5017617;28;20190;-87
2023/10/27 13:13:39;;;;;;;3.27;2.97;;;;;;;;;;5014132;28;20220;-87
2023/10/27 13:16:12;;;;;;;3.40;2.93;;;;;;;;;;5014500;28;20263;-87
2023/10/27 13:18:38;;;;;;;3.17;2.53;;;;;;;;;;5015210;28;20200;-91
2023/10/27 13:21:04;;;;;;;3.03;2.70;;;;;;;;;;5028088;28;20188;-91
2023/10/27 13:23:30;;;;;;;3.37;2.33;;;;;;;;;;5014568;28;20241;-90
2023/10/27 13:26:03;;;;;;;3.97;2.47;;;;;;;;;;5014647;28;20185;-89
2023/10/27 13:28:29;;;;;;;2.50;2.30;;;;;;;;;;5031371;28;20188;-90
2023/10/27 13:30:55;;;;;;;3.10;2.30;;;;;;;;;;4990367;28;20194;-90
2023/10/27 13:33:21;;;;;;;3.97;2.33;;;;;;;;;;5022326;28;20212;-85
2023/10/27 13:35:47;;;;;;;3.77;2.20;;;;;;;;;;5017831;28;20181;-84
2023/10/27 13:38:14;;;;;;;3.40;2.20;;;;;;;;;;5033961;28;20244;-84
2023/10/27 13:40:40;;;;;;;2.50;2.30;;;;;;;;;;5019140;28;20209;-91
2023/10/27 13:43:06;;;;;;;2.80;2.40;;;;;;;;;;5033351;28;20215;-92
2023/10/27 13:45:32;;;;;;;3.37;2.60;;;;;;;;;;5018179;28;20185;-91
2023/10/27 13:47:58;;;;;;;4.90;2.70;;;;;;;;;;5034696;28;20260;-91
2023/10/27 13:50:24;;;;;;;3.87;2.93;;;;;;;;;;5017808;28;20239;-90
2023/10/27 13:52:51;;;;;;;3.60;2.43;;;;;;;;;;5020292;28;20185;-90
2023/10/27 13:55:17;;;;;;;3.63;2.20;;;;;;;;;;4994333;28;20240;-89
2023/10/27 13:57:43;;;;;;;2.77;2.03;;;;;;;;;;5017309;28;20194;-90
2023/10/27 14:00:10;;;;;;;2.73;2.20;;;;;;;;;;5039369;28;20334;-92
2023/10/27 14:02:36;;;;;;;6.07;2.70;;;;;;;;;;5038629;28;20208;-91
2023/10/27 14:05:02;;;;;;;6.20;2.80;;;;;;;;;;5033662;28;20185;-91
2023/10/27 14:07:28;;;;;;;3.73;3.10;;;;;;;;;;5025814;28;20222;-90
2023/10/27 14:09:54;;;;;;;5.97;3.53;;;;;;;;;;5020234;28;20213;-89
2023/10/27 14:12:20;;;;;;;5.93;3.40;;;;;;;;;;5024885;28;20188;-90
2023/10/27 14:14:46;;;;;;;4.03;3.60;;;;;;;;;;5017446;28;20216;-86
2023/10/27 14:17:12;;;;;;;5.83;3.60;;;;;;;;;;5016238;28;20200;-86
2023/10/27 14:19:38;;;;;;;4.57;4.17;;;;;;;;;;5038382;28;20234;-86
2023/10/27 14:22:04;;;;;;;4.40;3.90;;;;;;;;;;5038541;22;20321;-90
2023/10/27 14:24:33;;;;;;;7.47;4.03;;;;;;;;;;5012949;28;20188;-86
2023/10/27 14:26:59;;;;;;;4.13;3.73;;;;;;;;;;5025756;28;20184;-86
2023/10/27 14:29:25;;;;;;;4.40;4.00;;;;;;;;;;5018052;28;20220;-86
2023/10/27 14:31:51;;;;;;;7.53;4.17;;;;;;;;;;5015950;28;20184;-91
2023/10/27 14:34:17;;;;;;;6.47;4.30;;;;;;;;;;5038618;28;20225;-92
2023/10/27 14:36:43;;;;;;;6.47;4.27;;;;;;;;;;5020965;28;20188;-92
2023/10/27 14:39:13;;;;;;;7.43;4.17;;;;;;;;;;5025573;28;20183;-91
2023/10/27 14:41:40;;;;;;;5.77;4.30;;;;;;;;;;5033658;28;20184;-91